createdAt,value
2022-08-27T00:02:35.551Z,24.64
2022-08-27T00:07:37.675Z,24.41
2022-08-27T00:12:37.813Z,24.52
2022-08-27T00:17:36.605Z,24.66
2022-08-27T00:22:37.995Z,24.67
2022-08-27T00:27:43.177Z,24.59
2022-08-27T00:32:43.074Z,24.52
2022-08-27T00:37:41.881Z,24.65
2022-08-27T00:42:42.627Z,24.69
2022-08-27T00:47:50.642Z,24.40
2022-08-27T00:52:55.767Z,24.60
2022-08-27T00:58:24.302Z,24.39
2022-08-27T01:03:23.061Z,24.48
2022-08-27T01:08:23.908Z,24.40
2022-08-27T01:13:54.434Z,24.04
2022-08-27T01:18:46.755Z,24.17
2022-08-27T01:24:23.193Z,24.28
2022-08-27T01:29:24.700Z,23.93
2022-08-27T01:34:27.626Z,24.02
2022-08-27T01:39:27.224Z,23.83
2022-08-27T01:44:31.376Z,23.97
2022-08-27T01:49:31.472Z,23.50
2022-08-27T01:54:31.834Z,23.61
2022-08-27T01:59:39.383Z,23.66
2022-08-27T02:04:40.352Z,23.39
2022-08-27T02:09:43.246Z,23.17
2022-08-27T02:14:44.765Z,22.84
2022-08-27T02:19:45.525Z,23.01
2022-08-27T02:24:44.888Z,22.98
2022-08-27T02:29:44.030Z,23.00
2022-08-27T02:34:44.749Z,23.07
2022-08-27T02:39:46.711Z,22.80
2022-08-27T02:44:45.333Z,22.87
2022-08-27T02:49:48.112Z,22.88
2022-08-27T02:54:52.406Z,22.80
2022-08-27T02:59:53.812Z,23.05
2022-08-27T03:04:54.845Z,23.06
2022-08-27T03:09:57.077Z,23.12
2022-08-27T03:14:56.606Z,23.18
2022-08-27T03:19:55.733Z,23.38
2022-08-27T03:24:56.713Z,23.35
2022-08-27T03:29:59.585Z,23.38
2022-08-27T03:35:03.232Z,23.38
2022-08-27T03:40:06.046Z,23.41
2022-08-27T03:45:06.021Z,23.18
2022-08-27T03:50:11.731Z,23.57
2022-08-27T03:55:15.493Z,23.52
2022-08-27T04:00:14.485Z,23.63
2022-08-27T04:05:23.523Z,23.71
2022-08-27T04:10:24.901Z,23.93
2022-08-27T04:15:29.017Z,23.92
2022-08-27T04:20:48.456Z,23.78
2022-08-27T04:25:50.689Z,23.99
2022-08-27T04:30:52.506Z,24.22
2022-08-27T04:36:11.183Z,23.99
2022-08-27T04:41:35.223Z,23.90
2022-08-27T04:46:37.928Z,24.10
2022-08-27T04:51:37.065Z,24.31
2022-08-27T04:56:44.672Z,24.12
2022-08-27T05:01:44.936Z,24.07
2022-08-27T05:06:46.195Z,23.89
2022-08-27T05:11:47.174Z,23.71
2022-08-27T05:16:47.804Z,23.45
2022-08-27T05:21:53.541Z,23.82
2022-08-27T05:26:53.864Z,23.68
2022-08-27T05:31:59.823Z,23.57
2022-08-27T05:37:00.945Z,23.67
2022-08-27T05:42:00.338Z,23.66
2022-08-27T05:47:02.188Z,23.79
2022-08-27T05:52:07.925Z,23.89
2022-08-27T05:57:12.736Z,24.22
2022-08-27T06:02:11.909Z,24.35
2022-08-27T06:07:11.097Z,24.20
2022-08-27T06:12:09.855Z,24.31
2022-08-27T06:17:11.292Z,24.50
2022-08-27T06:22:10.944Z,24.68
2022-08-27T06:27:15.272Z,24.94
2022-08-27T06:32:15.550Z,24.82
2022-08-27T06:37:13.409Z,24.89
2022-08-27T06:42:13.366Z,25.27
2022-08-27T06:47:12.441Z,25.28
2022-08-27T06:52:11.693Z,25.46
2022-08-27T06:57:11.005Z,25.50
2022-08-27T07:02:09.581Z,25.29
2022-08-27T07:07:08.823Z,25.49
2022-08-27T07:12:07.379Z,25.70
2022-08-27T07:17:10.881Z,26.02
2022-08-27T07:22:15.684Z,26.15
2022-08-27T07:27:14.506Z,26.37
2022-08-27T07:32:13.070Z,26.54
2022-08-27T07:37:14.753Z,26.58
2022-08-27T07:42:33.079Z,26.71
2022-08-27T07:47:32.192Z,26.84
2022-08-27T07:52:34.599Z,26.89
2022-08-27T07:57:36.345Z,26.71
2022-08-27T08:02:36.247Z,27.02
2022-08-27T08:07:35.383Z,27.00
2022-08-27T08:12:36.165Z,27.59
2022-08-27T08:17:35.969Z,27.66
2022-08-27T08:22:35.287Z,27.83
2022-08-27T08:27:36.083Z,28.16
2022-08-27T08:32:37.657Z,28.24
2022-08-27T08:37:36.417Z,28.41
2022-08-27T08:42:50.576Z,28.65
2022-08-27T08:47:52.817Z,28.79
2022-08-27T08:52:56.166Z,28.97
2022-08-27T08:58:00.466Z,29.06
2022-08-27T09:02:59.414Z,28.98
2022-08-27T09:08:21.777Z,29.36
2022-08-27T09:13:28.843Z,29.19
2022-08-27T09:18:28.143Z,29.54
2022-08-27T09:23:34.085Z,29.95
2022-08-27T09:29:00.964Z,29.87
2022-08-27T09:34:00.264Z,30.09
2022-08-27T09:39:02.669Z,30.25
2022-08-27T09:44:03.912Z,30.37
2022-08-27T09:49:13.010Z,30.66
2022-08-27T09:54:11.899Z,30.73
2022-08-27T09:59:41.729Z,30.87
2022-08-27T10:04:50.363Z,30.96
2022-08-27T10:10:11.202Z,31.22
2022-08-27T10:15:09.831Z,31.14
2022-08-27T10:20:32.953Z,31.42
2022-08-27T10:25:59.073Z,31.46
2022-08-27T10:31:26.357Z,31.63
2022-08-27T10:36:38.179Z,31.43
2022-08-27T10:41:47.536Z,31.28
2022-08-27T10:47:07.244Z,31.82
2022-08-27T10:52:13.091Z,31.93
2022-08-27T10:57:54.289Z,31.89
2022-08-27T11:03:08.424Z,32.19
2022-08-27T11:08:19.313Z,32.04
2022-08-27T11:13:33.996Z,31.90
2022-08-27T11:18:44.617Z,31.93
2022-08-27T11:23:54.030Z,32.48
2022-08-27T11:29:03.015Z,32.70
2022-08-27T11:34:55.680Z,32.67
2022-08-27T11:39:59.286Z,32.92
2022-08-27T11:45:07.964Z,32.58
2022-08-27T11:50:23.955Z,33.26
2022-08-27T11:55:24.276Z,33.53
2022-08-27T12:00:29.500Z,33.34
2022-08-27T12:06:06.241Z,33.56
2022-08-27T12:11:31.834Z,33.64
2022-08-27T12:16:44.983Z,34.27
2022-08-27T12:21:50.802Z,33.79
2022-08-27T12:27:01.753Z,34.15
2022-08-27T12:32:25.156Z,34.47
2022-08-27T12:37:57.641Z,34.57
2022-08-27T12:43:29.762Z,34.42
2022-08-27T12:48:36.392Z,34.19
2022-08-27T12:53:55.018Z,34.92
2022-08-27T12:59:01.004Z,34.53
2022-08-27T13:04:11.609Z,34.42
2022-08-27T13:09:14.588Z,34.92
2022-08-27T13:14:17.217Z,34.74
2022-08-27T13:19:38.849Z,35.66
2022-08-27T13:24:56.828Z,35.80
2022-08-27T13:30:01.995Z,37.90
2022-08-27T13:35:01.316Z,38.25
2022-08-27T13:40:00.560Z,38.04
2022-08-27T13:45:05.615Z,35.79
2022-08-27T13:50:24.771Z,36.34
2022-08-27T13:55:24.006Z,38.05
2022-08-27T14:00:34.973Z,38.71
2022-08-27T14:05:41.912Z,38.05
2022-08-27T14:10:45.483Z,38.70
2022-08-27T14:15:51.852Z,38.80
2022-08-27T14:20:51.497Z,39.10
2022-08-27T14:25:50.642Z,39.62
2022-08-27T14:30:53.183Z,39.19
2022-08-27T14:35:55.107Z,37.39
2022-08-27T14:40:54.695Z,36.79
2022-08-27T14:45:55.311Z,35.69
2022-08-27T14:50:58.351Z,36.01
2022-08-27T14:55:59.170Z,36.05
2022-08-27T15:01:02.014Z,36.00
2022-08-27T15:06:04.068Z,35.16
2022-08-27T15:11:03.739Z,35.30
2022-08-27T15:16:06.864Z,34.98
2022-08-27T15:21:08.178Z,34.20
2022-08-27T15:26:10.363Z,33.82
2022-08-27T15:31:11.404Z,34.18
2022-08-27T15:36:09.929Z,34.21
2022-08-27T15:41:10.480Z,34.17
2022-08-27T15:46:13.109Z,34.27
2022-08-27T15:51:14.591Z,34.04
2022-08-27T15:56:17.978Z,34.07
2022-08-27T16:01:26.613Z,34.02
2022-08-27T16:06:24.446Z,33.97
2022-08-27T16:11:23.863Z,33.78
2022-08-27T16:16:25.659Z,33.57
2022-08-27T16:21:24.164Z,33.52
2022-08-27T16:26:26.148Z,33.19
2022-08-27T16:31:24.782Z,32.86
2022-08-27T16:36:23.836Z,32.60
2022-08-27T16:41:23.439Z,32.36
2022-08-27T16:46:21.051Z,32.09
2022-08-27T16:51:27.824Z,31.90
2022-08-27T16:56:28.383Z,31.61
2022-08-27T17:01:28.462Z,31.53
2022-08-27T17:06:27.586Z,31.23
2022-08-27T17:11:29.202Z,31.09
2022-08-27T17:16:33.829Z,30.91
2022-08-27T17:21:35.017Z,30.77
2022-08-27T17:26:38.874Z,30.78
2022-08-27T17:31:47.708Z,30.58
2022-08-27T17:36:56.625Z,30.38
2022-08-27T17:41:56.246Z,30.37
2022-08-27T17:47:07.380Z,30.17
2022-08-27T17:52:21.116Z,30.10
2022-08-27T17:57:37.415Z,30.18
2022-08-27T18:02:53.327Z,29.84
2022-08-27T18:13:45.628Z,29.86
2022-08-27T18:18:57.324Z,29.69
2022-08-27T18:29:38.776Z,29.24
2022-08-27T18:34:47.759Z,28.95
2022-08-27T18:40:16.259Z,28.91
2022-08-27T18:45:31.529Z,28.99
2022-08-27T18:50:37.406Z,28.69
2022-08-27T18:55:46.609Z,28.85
2022-08-27T19:01:11.800Z,28.77
2022-08-27T19:06:13.716Z,28.58
2022-08-27T19:11:22.068Z,28.88
2022-08-27T19:16:34.697Z,28.62
2022-08-27T19:21:41.235Z,28.71
2022-08-27T19:26:41.068Z,28.38
2022-08-27T19:31:49.725Z,28.41
2022-08-27T19:36:48.048Z,28.64
2022-08-27T19:41:47.375Z,28.58
2022-08-27T19:46:46.053Z,28.55
2022-08-27T19:51:44.269Z,28.50
2022-08-27T19:56:42.971Z,28.48
2022-08-27T20:01:46.899Z,28.39
2022-08-27T20:06:46.730Z,28.25
2022-08-27T20:11:51.336Z,28.18
2022-08-27T20:16:49.674Z,28.04
2022-08-27T20:21:48.286Z,27.70
2022-08-27T20:26:46.808Z,27.67
2022-08-27T20:31:44.662Z,27.64
2022-08-27T20:36:45.352Z,27.51
2022-08-27T20:41:46.379Z,27.58
2022-08-27T20:46:51.035Z,27.70
2022-08-27T20:52:02.238Z,27.46
2022-08-27T20:57:03.041Z,27.53
2022-08-27T21:02:07.194Z,27.54
2022-08-27T21:07:06.711Z,27.38
2022-08-27T21:12:04.573Z,27.59
2022-08-27T21:17:03.809Z,27.56
2022-08-27T21:22:06.557Z,27.60
2022-08-27T21:27:06.296Z,27.38
2022-08-27T21:32:07.560Z,27.27
2022-08-27T21:37:06.037Z,26.80
2022-08-27T21:42:04.222Z,26.62
2022-08-27T21:47:04.758Z,26.87
2022-08-27T21:52:04.882Z,26.56
2022-08-27T21:57:04.515Z,26.41
2022-08-27T22:02:05.182Z,26.22
2022-08-27T22:07:13.432Z,26.01
2022-08-27T22:12:12.211Z,26.28
2022-08-27T22:17:15.956Z,26.09
2022-08-27T22:22:14.821Z,26.05
2022-08-27T22:27:13.835Z,26.20
2022-08-27T22:32:12.405Z,25.98
2022-08-27T22:37:10.932Z,25.86
2022-08-27T22:42:09.380Z,25.86
2022-08-27T22:47:12.242Z,25.47
2022-08-27T22:52:10.824Z,25.70
2022-08-27T22:57:10.634Z,25.54
2022-08-27T23:02:10.619Z,25.60
2022-08-27T23:07:09.199Z,25.06
2022-08-27T23:12:09.374Z,25.02
2022-08-27T23:17:07.650Z,25.08
2022-08-27T23:22:06.602Z,25.10
2022-08-27T23:27:25.020Z,25.30
2022-08-27T23:32:23.723Z,25.15
2022-08-27T23:37:24.075Z,24.90
2022-08-27T23:42:21.918Z,24.97
2022-08-27T23:47:20.212Z,24.98
2022-08-27T23:52:18.428Z,24.76
2022-08-27T23:57:16.608Z,24.85
